Time;durP1;ratioP1;P1;durP2;ratioP2;P2;SDS_P1;SDS_P2;PMS_P1;PMS_P2;Temp;Humidity;BMP_temperature;BMP_pressure;BME280_temperature;BME280_humidity;BME280_pressure;Samples;Min_cycle;Max_cycle;Signal;HPM_P1;HPM_P2
2022/05/19 00:12:17;;;;;;;10.93;4.72;;;;;;;7.25;100.00;98527.16;4952659;28;20526;-85
2022/05/19 00:14:42;;;;;;;9.63;4.88;;;;;;;7.50;100.00;98552.91;4910938;29;20036;-84
2022/05/19 00:17:08;;;;;;;10.45;4.85;;;;;;;7.77;100.00;98579.50;4935844;29;20031;-84
2022/05/19 00:19:46;;;;;;;9.77;5.60;;;;;;;7.67;100.00;98541.66;4919944;29;20031;-85
2022/05/19 00:22:12;;;;;;;9.20;5.70;;;;;;;8.00;100.00;98585.75;4919639;29;20573;-84
2022/05/19 00:24:43;;;;;;;17.25;5.90;;;;;;;7.71;100.00;98518.47;4919495;28;20121;-85
2022/05/19 00:27:15;;;;;;;16.90;6.47;;;;;;;7.97;100.00;98572.56;4935730;28;20058;-84
2022/05/19 00:29:44;;;;;;;18.27;6.70;;;;;;;7.65;100.00;98519.56;4919687;29;20093;-85
2022/05/19 00:32:28;;;;;;;9.82;5.80;;;;;;;8.15;100.00;98592.38;4935119;29;20499;-84
2022/05/19 00:34:53;;;;;;;11.32;6.85;;;;;;;7.89;100.00;98550.66;4935436;28;20443;-84
2022/05/19 00:37:22;;;;;;;8.95;5.78;;;;;;;7.75;100.00;98547.63;4935716;29;20035;-85
2022/05/19 00:39:48;;;;;;;12.00;5.28;;;;;;;7.77;100.00;98559.06;4919782;29;20149;-85
2022/05/19 00:45:21;;;;;;;13.77;6.05;;;;;;;7.63;100.00;98513.41;4931276;29;20097;-86
2022/05/19 00:48:11;;;;;;;;;;;;;;;8.14;100.00;98586.16;4934376;29;20027;-84
2022/05/19 00:54:27;;;;;;;13.98;6.32;;;;;;;7.94;100.00;98554.00;4874906;29;20149;-85
2022/05/19 00:57:02;;;;;;;10.88;6.53;;;;;;;8.25;100.00;98599.09;4843018;29;20092;-85
2022/05/19 00:59:38;;;;;;;14.02;6.68;;;;;;;8.00;100.00;98566.25;4874788;29;20045;-85
2022/05/19 01:02:07;;;;;;;12.82;7.00;;;;;;;7.95;100.00;98558.44;4843454;29;20205;-85
2022/05/19 01:04:40;;;;;;;11.80;6.88;;;;;;;8.24;100.00;98605.38;4858864;29;20509;-85
2022/05/19 01:07:07;;;;;;;;;;;;;;;8.25;100.00;98606.22;4844630;29;20041;-85
2022/05/19 01:09:37;;;;;;;12.57;6.03;;;;;;;7.91;100.00;98588.75;4899337;29;19926;-85
2022/05/19 01:12:10;;;;;;;17.58;6.32;;;;;;;7.96;100.00;98592.16;4919616;29;20124;-85
2022/05/19 01:14:39;;;;;;;13.90;7.13;;;;;;;8.00;100.00;98593.75;4934866;28;20031;-85
2022/05/19 01:17:06;;;;;;;11.43;7.68;;;;;;;8.15;100.00;98609.22;4935237;29;20121;-85
2022/05/19 01:19:43;;;;;;;18.80;7.28;;;;;;;8.03;100.00;98585.66;4935320;28;20023;-85
2022/05/19 01:22:27;;;;;;;14.05;7.45;;;;;;;8.11;100.00;98599.59;4935034;29;20126;-85
2022/05/19 01:25:21;;;;;;;13.70;6.63;;;;;;;8.02;100.00;98585.72;4952426;28;20015;-84
2022/05/19 01:27:47;;;;;;;14.27;6.60;;;;;;;8.27;100.00;98613.25;4938379;29;20027;-82
2022/05/19 01:30:15;;;;;;;18.63;7.15;;;;;;;8.14;100.00;98587.97;4938664;28;20035;-83
2022/05/19 01:32:41;;;;;;;14.55;6.93;;;;;;;8.31;100.00;98611.34;4922573;29;20027;-83
2022/05/19 01:35:07;;;;;;;10.63;5.97;;;;;;;8.17;100.00;98594.06;4922565;29;20097;-84
2022/05/19 01:37:47;;;;;;;9.10;6.57;;;;;;;8.02;100.00;98585.72;4938272;29;20023;-85
2022/05/19 01:40:12;;;;;;;11.55;6.05;;;;;;;7.98;100.00;98595.63;4950735;28;20101;-84
2022/05/19 01:43:10;;;;;;;14.05;6.35;;;;;;;8.18;100.00;98605.59;4938196;29;20109;-84
2022/05/19 01:45:57;;;;;;;15.88;6.15;;;;;;;8.31;100.00;98616.69;4872483;29;20051;-84
2022/05/19 01:48:42;;;;;;;14.32;6.43;;;;;;;8.25;100.00;98606.22;4938392;29;20039;-84
2022/05/19 01:51:15;;;;;;;12.20;5.18;;;;;;;8.19;100.00;98591.31;4921595;29;20465;-84
2022/05/19 01:53:43;;;;;;;16.65;6.40;;;;;;;8.27;100.00;98621.25;4938349;29;20039;-84
2022/05/19 01:56:17;;;;;;;17.25;6.93;;;;;;;8.29;100.00;98616.75;4922379;29;20113;-85
2022/05/19 01:58:51;;;;;;;14.18;6.72;;;;;;;8.26;100.00;98626.63;4922200;28;20037;-84
2022/05/19 02:01:18;;;;;;;19.88;6.47;;;;;;;8.21;100.00;98624.13;4914816;29;20039;-84
2022/05/19 02:03:50;;;;;;;16.55;7.28;;;;;;;8.28;100.00;98627.47;4922073;29;20027;-84
2022/05/19 02:06:27;;;;;;;11.75;7.10;;;;;;;8.19;100.00;98624.19;4937820;29;20511;-85
2022/05/19 02:09:18;;;;;;;27.75;6.50;;;;;;;8.00;100.00;98582.22;4921860;29;20047;-84
2022/05/19 02:11:47;;;;;;;12.90;5.75;;;;;;;8.26;100.00;98630.16;4909543;29;20035;-84
2022/05/19 02:14:15;;;;;;;10.50;5.03;;;;;;;8.09;100.00;98622.75;4937825;29;20050;-84
2022/05/19 02:16:42;;;;;;;9.95;5.03;;;;;;;8.01;100.00;98614.16;4939677;29;20039;-81
2022/05/19 02:19:09;;;;;;;10.45;4.65;;;;;;;8.09;100.00;98629.91;4925153;29;20031;-82
2022/05/19 02:21:34;;;;;;;8.35;4.72;;;;;;;8.07;100.00;98627.28;4926407;29;20051;-82
2022/05/19 02:24:01;;;;;;;8.57;4.70;;;;;;;8.13;100.00;98626.19;4922081;29;20081;-82
2022/05/19 02:26:32;;;;;;;7.82;5.03;;;;;;;8.05;100.00;98618.47;4937748;29;20031;-82
2022/05/19 02:29:01;;;;;;;9.07;4.93;;;;;;;8.08;100.00;98615.69;4938185;29;20038;-82
2022/05/19 02:31:27;;;;;;;8.52;4.80;;;;;;;8.21;100.00;98628.59;4938373;29;20038;-82
2022/05/19 02:33:53;;;;;;;12.18;5.40;;;;;;;8.12;100.00;98617.31;4939498;29;20036;-82
2022/05/19 02:36:18;;;;;;;10.23;5.07;;;;;;;8.17;100.00;98623.38;4942547;28;20120;-82
2022/05/19 02:38:44;;;;;;;13.77;5.70;;;;;;;8.08;100.00;98618.38;4925191;29;20042;-81
2022/05/19 02:41:10;;;;;;;8.10;4.97;;;;;;;8.04;100.00;98619.38;4925815;29;20043;-81
2022/05/19 02:43:35;;;;;;;17.48;5.95;;;;;;;8.12;100.00;98625.31;4942363;29;20464;-81
2022/05/19 02:46:01;;;;;;;8.02;4.95;;;;;;;8.13;100.00;98628.84;4939996;29;20055;-82
2022/05/19 02:48:26;;;;;;;9.35;5.60;;;;;;;8.03;100.00;98620.28;4941302;29;20071;-82
2022/05/19 02:50:52;;;;;;;14.07;6.32;;;;;;;8.11;100.00;98625.38;4927486;28;20035;-81
2022/05/19 02:53:18;;;;;;;10.55;5.90;;;;;;;8.17;100.00;98633.16;4922965;29;20027;-82
2022/05/19 02:55:45;;;;;;;15.88;6.03;;;;;;;8.15;100.00;98629.69;4937379;29;20028;-81
2022/05/19 02:58:12;;;;;;;11.88;5.47;;;;;;;8.13;100.00;98624.38;4937156;29;20090;-82
2022/05/19 03:00:39;;;;;;;11.88;5.50;;;;;;;8.15;100.00;98629.69;4920978;29;20114;-83
2022/05/19 03:03:05;;;;;;;14.48;5.00;;;;;;;8.10;100.00;98631.63;4937138;29;20086;-83
2022/05/19 03:05:33;;;;;;;11.65;6.03;;;;;;;8.15;100.00;98633.19;4920779;29;20067;-81
2022/05/19 03:07:58;;;;;;;8.80;5.25;;;;;;;8.14;100.00;98638.59;4921162;29;20027;-83
2022/05/19 03:10:24;;;;;;;10.82;6.38;;;;;;;7.85;100.00;98604.94;4921078;29;20030;-83
2022/05/19 03:12:51;;;;;;;13.77;5.95;;;;;;;8.11;100.00;98644.91;4937110;29;20039;-82
2022/05/19 03:15:16;;;;;;;13.27;6.28;;;;;;;8.13;100.00;98629.72;4921506;29;20023;-82
2022/05/19 03:17:42;;;;;;;23.80;6.65;;;;;;;8.15;100.00;98651.00;4923023;29;20023;-83
2022/05/19 03:20:09;;;;;;;10.00;5.38;;;;;;;8.19;100.00;98650.81;4923067;29;20041;-82
2022/05/19 03:22:35;;;;;;;22.00;6.13;;;;;;;8.22;100.00;98641.84;4920993;29;20023;-82
2022/05/19 03:25:01;;;;;;;8.32;5.68;;;;;;;8.09;100.00;98637.88;4936451;29;20415;-82
2022/05/19 03:27:26;;;;;;;23.00;6.38;;;;;;;8.14;100.00;98652.78;4937326;29;20077;-82
2022/05/19 03:29:53;;;;;;;19.67;6.45;;;;;;;8.17;100.00;98654.47;4921088;29;20019;-82
2022/05/19 03:32:19;;;;;;;15.00;5.93;;;;;;;8.22;100.00;98657.84;4921792;29;20520;-83
2022/05/19 03:34:44;;;;;;;19.92;6.50;;;;;;;8.10;100.00;98652.94;4937432;29;20023;-83
2022/05/19 03:37:10;;;;;;;21.00;6.38;;;;;;;8.09;100.00;98651.22;4921373;29;20502;-83
2022/05/19 03:39:36;;;;;;;14.75;6.28;;;;;;;8.11;100.00;98650.22;4923516;29;20027;-82
2022/05/19 03:42:03;;;;;;;12.50;7.45;;;;;;;8.17;100.00;98658.00;4921431;29;20027;-80
2022/05/19 03:44:28;;;;;;;28.35;9.30;;;;;;;8.21;100.00;98655.25;4935777;29;20023;-80
2022/05/19 03:46:54;;;;;;;15.43;8.38;;;;;;;8.30;100.00;98669.16;4935851;29;20023;-79
2022/05/19 03:49:19;;;;;;;17.15;7.95;;;;;;;8.29;100.00;98669.19;4919802;29;20031;-81
2022/05/19 03:51:45;;;;;;;12.80;7.60;;;;;;;8.27;100.00;98665.69;4936434;29;20045;-79
2022/05/19 03:54:11;;;;;;;19.95;8.55;;;;;;;8.44;100.00;98663.31;4935901;29;20031;-80
2022/05/19 03:56:37;;;;;;;19.70;6.40;;;;;;;8.47;100.00;98673.88;4935731;29;20035;-80
2022/05/19 03:59:02;;;;;;;28.35;7.10;;;;;;;8.44;100.00;98672.19;4935839;29;20118;-80
2022/05/19 04:01:29;;;;;;;15.20;6.70;;;;;;;8.45;100.00;98678.41;4936055;29;20030;-80
2022/05/19 04:03:55;;;;;;;18.52;6.60;;;;;;;8.44;100.00;98674.88;4920132;29;20486;-80
2022/05/19 04:06:21;;;;;;;14.65;6.70;;;;;;;8.37;100.00;98675.13;4916385;29;20048;-82
2022/05/19 04:08:47;;;;;;;22.25;6.78;;;;;;;8.31;100.00;98676.22;4916904;29;20070;-82
2022/05/19 04:11:13;;;;;;;18.27;6.03;;;;;;;8.33;100.00;98677.03;4917032;29;20035;-82
2022/05/19 04:13:39;;;;;;;35.92;7.10;;;;;;;8.25;100.00;98678.19;4917042;29;20082;-83
2022/05/19 04:16:04;;;;;;;21.23;7.20;;;;;;;8.45;100.00;98689.06;4934161;29;20023;-83
2022/05/19 04:18:30;;;;;;;21.55;7.30;;;;;;;8.55;100.00;98686.00;4901312;29;20038;-83
2022/05/19 04:20:56;;;;;;;16.83;7.45;;;;;;;8.56;100.00;98684.22;4917676;29;20118;-82
2022/05/19 04:23:22;;;;;;;16.15;7.90;;;;;;;8.60;100.00;98681.41;4939390;29;20028;-83
2022/05/19 04:25:47;;;;;;;28.63;7.63;;;;;;;8.62;100.00;98673.31;4920564;29;20063;-82
2022/05/19 04:28:13;;;;;;;13.88;7.13;;;;;;;8.71;100.00;98689.00;4903917;29;20467;-83
2022/05/19 04:30:41;;;;;;;14.88;7.38;;;;;;;8.88;100.00;98691.06;4918061;29;20141;-81
2022/05/19 04:33:07;;;;;;;16.98;9.35;;;;;;;8.98;100.00;98693.31;4902339;29;20035;-82
2022/05/19 04:35:33;;;;;;;22.08;10.68;;;;;;;9.08;100.00;98691.19;4917552;29;20028;-82
2022/05/19 04:38:00;;;;;;;15.20;9.27;;;;;;;9.00;100.00;98696.81;4918683;29;20035;-83
2022/05/19 04:40:27;;;;;;;24.63;9.77;;;;;;;8.86;100.00;98693.78;4925142;29;20031;-83
2022/05/19 04:42:55;;;;;;;13.45;8.48;;;;;;;8.95;100.00;98697.91;4909355;29;20088;-84
2022/05/19 04:45:21;;;;;;;18.98;8.68;;;;;;;9.02;100.00;98689.63;4927738;29;20050;-83
2022/05/19 04:47:47;;;;;;;23.00;8.57;;;;;;;8.95;100.00;98693.44;4925761;29;20036;-83
2022/05/19 04:50:13;;;;;;;16.77;8.65;;;;;;;9.01;100.00;98700.38;4920787;29;20048;-82
2022/05/19 04:52:39;;;;;;;16.90;10.13;;;;;;;9.02;100.00;98694.94;4910408;29;20027;-81
2022/05/19 04:55:06;;;;;;;19.92;9.18;;;;;;;9.06;100.00;98701.94;4926588;29;20119;-81
2022/05/19 04:57:32;;;;;;;22.42;8.98;;;;;;;9.20;100.00;98710.28;4912448;29;20031;-82
2022/05/19 04:59:57;;;;;;;27.20;8.70;;;;;;;9.25;100.00;98712.78;4935798;29;20511;-82
2022/05/19 05:02:23;;;;;;;22.85;9.63;;;;;;;9.12;100.00;98706.16;4945427;29;20099;-82
2022/05/19 05:04:48;;;;;;;22.25;9.10;;;;;;;8.91;100.00;98702.50;4907706;28;20050;-77
2022/05/19 05:07:14;;;;;;;15.57;8.63;;;;;;;8.96;100.00;98708.53;4909467;29;20027;-77
2022/05/19 05:09:40;;;;;;;16.45;9.50;;;;;;;9.14;100.00;98705.16;4926154;29;20114;-76
2022/05/19 05:12:06;;;;;;;19.30;8.95;;;;;;;9.14;100.00;98710.50;4926129;29;20041;-77
2022/05/19 05:14:31;;;;;;;15.68;9.25;;;;;;;9.30;100.00;98713.47;4925843;29;20098;-77
2022/05/19 05:16:57;;;;;;;12.35;7.57;;;;;;;9.46;100.00;98698.59;4919365;29;20099;-77
2022/05/19 05:19:29;;;;;;;13.60;7.13;;;;;;;9.74;100.00;98707.28;4910095;29;20118;-77
2022/05/19 05:21:57;;;;;;;18.83;8.17;;;;;;;9.83;100.00;98711.38;4904167;29;20039;-77
2022/05/19 05:24:23;;;;;;;17.48;7.65;;;;;;;9.89;100.00;98712.91;4919576;29;20078;-77
2022/05/19 05:26:48;;;;;;;31.88;8.93;;;;;;;9.98;100.00;98708.06;4936588;29;20036;-77
2022/05/19 05:29:14;;;;;;;13.23;7.97;;;;;;;9.90;100.00;98709.31;4903853;29;20039;-77
2022/05/19 05:31:40;;;;;;;16.25;7.03;;;;;;;10.11;100.00;98717.34;4936502;29;20036;-77
2022/05/19 05:34:06;;;;;;;25.30;9.23;;;;;;;10.29;100.00;98711.25;4903396;29;20031;-77
2022/05/19 05:36:35;;;;;;;55.22;31.27;;;;;;;10.11;100.00;98711.13;4945410;28;20118;-76
2022/05/19 05:39:01;;;;;;;35.20;18.55;;;;;;;10.43;100.00;98715.16;4920726;29;20095;-76
2022/05/19 05:41:26;;;;;;;27.63;14.15;;;;;;;10.45;100.00;98724.84;4923976;29;20039;-77
2022/05/19 05:43:52;;;;;;;19.63;8.82;;;;;;;10.61;100.00;98717.03;4924513;29;20035;-76
2022/05/19 05:46:18;;;;;;;17.27;7.65;;;;;;;10.85;100.00;98715.97;4936197;29;20027;-76
2022/05/19 05:48:45;;;;;;;17.08;8.13;;;;;;;10.68;100.00;98715.81;4919384;29;20036;-77
2022/05/19 05:51:12;;;;;;;18.23;8.18;;;;;;;10.44;100.00;98725.78;4918918;29;20428;-76
2022/05/19 05:53:39;;;;;;;17.42;8.43;;;;;;;9.92;100.00;98727.03;4918986;29;20034;-76
2022/05/19 05:56:06;;;;;;;13.57;8.68;;;;;;;10.18;100.00;98721.50;4925277;29;20400;-76
2022/05/19 05:58:32;;;;;;;11.93;8.18;;;;;;;10.46;100.00;98728.41;4920428;29;20028;-76
2022/05/19 06:00:58;;;;;;;15.00;8.75;;;;;;;10.69;100.00;98739.84;4902835;29;20027;-75
2022/05/19 06:03:24;;;;;;;12.90;8.07;;;;;;;10.76;100.00;98737.78;4918904;29;20035;-75
2022/05/19 06:05:50;;;;;;;18.17;9.27;;;;;;;10.59;100.00;98745.66;4930990;29;20439;-75
2022/05/19 06:08:16;;;;;;;27.75;12.68;;;;;;;10.81;100.00;98735.75;4937625;29;20042;-75
2022/05/19 06:10:42;;;;;;;21.77;11.27;;;;;;;10.80;100.00;98750.06;4937791;29;20030;-75
2022/05/19 06:13:08;;;;;;;32.35;13.82;;;;;;;11.01;100.00;98753.63;4937487;29;20039;-75
2022/05/19 06:15:35;;;;;;;19.52;10.35;;;;;;;11.15;100.00;98746.72;4937867;29;20518;-76
2022/05/19 06:18:01;;;;;;;20.13;11.25;;;;;;;11.57;100.00;98759.06;4921792;29;20031;-77
2022/05/19 06:20:27;;;;;;;27.92;12.25;;;;;;;11.75;100.00;98759.09;4921533;29;20046;-75
2022/05/19 06:22:53;;;;;;;95.72;56.17;;;;;;;11.89;100.00;98756.66;4937469;29;20035;-75
2022/05/19 06:25:21;;;;;;;32.55;18.38;;;;;;;11.47;100.00;98755.09;4920937;29;20036;-76
2022/05/19 06:27:50;;;;;;;20.17;11.27;;;;;;;11.18;100.00;98753.72;4937595;29;20031;-77
2022/05/19 06:30:18;;;;;;;13.73;9.50;;;;;;;11.33;100.00;98753.91;4922041;29;20042;-75
2022/05/19 06:32:44;;;;;;;22.13;10.35;;;;;;;11.51;100.00;98748.63;4921223;29;20035;-76
2022/05/19 06:35:12;;;;;;;22.25;12.05;;;;;;;11.88;100.00;98751.34;4937263;29;20114;-77
2022/05/19 06:37:38;;;;;;;16.42;9.57;;;;;;;12.42;98.83;98756.72;4921396;29;20046;-77
2022/05/19 06:40:04;;;;;;;17.40;10.00;;;;;;;12.41;96.57;98751.41;4921054;29;20035;-76
2022/05/19 06:42:30;;;;;;;40.22;24.10;;;;;;;12.69;96.54;98758.94;4921203;29;20035;-74
2022/05/19 06:44:56;;;;;;;19.75;8.27;;;;;;;13.34;91.73;98753.72;4937050;29;20385;-76
2022/05/19 06:47:22;;;;;;;31.23;15.73;;;;;;;13.72;87.86;98758.84;4937068;29;20046;-76
2022/05/19 06:49:51;;;;;;;46.78;24.05;;;;;;;14.46;83.69;98751.91;4937355;29;20030;-76
2022/05/19 06:52:25;;;;;;;16.35;8.18;;;;;;;14.15;79.89;98757.31;4920826;29;20034;-76
2022/05/19 06:54:54;;;;;;;15.10;7.78;;;;;;;14.99;77.22;98767.56;4921171;29;20034;-76
2022/05/19 06:57:21;;;;;;;20.75;8.45;;;;;;;16.14;72.96;98761.22;4936867;29;20035;-76
2022/05/19 06:59:49;;;;;;;15.82;7.97;;;;;;;16.95;69.26;98772.88;4953958;29;20054;-75
2022/05/19 07:02:14;;;;;;;13.90;7.95;;;;;;;17.70;64.63;98764.03;4920696;29;20072;-74
2022/05/19 07:04:40;;;;;;;19.30;7.20;;;;;;;18.94;59.39;98760.19;4936358;29;20139;-75
2022/05/19 07:07:06;;;;;;;11.48;6.38;;;;;;;18.61;57.20;98751.88;4905265;29;20036;-77
2022/05/19 07:09:33;;;;;;;13.25;7.25;;;;;;;17.72;58.93;98762.06;4900542;29;20039;-74
2022/05/19 07:12:00;;;;;;;10.15;6.88;;;;;;;19.48;55.08;98754.19;4902040;29;20110;-77
2022/05/19 07:14:26;;;;;;;10.75;6.25;;;;;;;20.13;52.48;98753.47;4917578;29;20028;-76
2022/05/19 07:16:52;;;;;;;7.75;6.15;;;;;;;22.05;48.00;98737.81;4902007;29;20031;-77
2022/05/19 07:22:05;;;;;;;9.50;5.95;;;;;;;23.76;44.11;98737.22;4920321;29;20038;-76
2022/05/19 07:24:31;;;;;;;22.15;6.68;;;;;;;24.02;43.34;98731.97;4903494;28;20038;-76
2022/05/19 07:26:57;;;;;;;10.15;6.00;;;;;;;25.59;39.47;98724.13;4922703;29;20456;-77
2022/05/19 07:29:24;;;;;;;13.63;6.35;;;;;;;26.18;38.59;98722.47;4901670;29;20111;-73
2022/05/19 07:31:50;;;;;;;10.20;6.32;;;;;;;26.43;37.73;98724.25;4917077;29;20035;-76
2022/05/19 07:34:18;;;;;;;8.57;6.55;;;;;;;26.17;38.08;98716.09;4934289;29;20028;-74
2022/05/19 07:36:44;;;;;;;18.30;8.98;;;;;;;26.53;37.19;98708.50;4918544;29;20035;-76
2022/05/19 07:39:11;;;;;;;29.88;8.55;;;;;;;24.57;40.20;98725.50;4912425;29;20034;-76
2022/05/19 07:41:38;;;;;;;32.70;8.75;;;;;;;26.25;38.41;98716.13;4918832;29;20055;-75
2022/05/19 07:44:06;;;;;;;13.88;8.25;;;;;;;26.49;38.53;98714.53;4934097;29;20023;-75
2022/05/19 07:46:32;;;;;;;10.20;6.68;;;;;;;24.70;39.86;98716.94;4917149;29;20036;-75
2022/05/19 07:48:58;;;;;;;14.38;7.53;;;;;;;23.53;43.26;98738.59;4916707;29;20385;-75
2022/05/19 07:51:31;;;;;;;38.45;18.55;;;;;;;23.67;43.18;98736.25;4917429;29;20034;-75
2022/05/19 07:53:57;;;;;;;13.48;7.05;;;;;;;23.66;42.10;98734.50;4917216;29;20123;-76
2022/05/19 07:56:23;;;;;;;21.48;6.70;;;;;;;24.32;42.03;98722.63;4934312;29;20114;-74
2022/05/19 07:58:50;;;;;;;81.47;10.77;;;;;;;25.40;40.69;98723.41;4900813;29;20039;-75
2022/05/19 08:01:17;;;;;;;12.48;6.78;;;;;;;24.52;40.45;98726.97;4917116;29;20043;-75
2022/05/19 08:03:43;;;;;;;17.92;11.63;;;;;;;23.58;41.96;98731.66;4916754;29;20502;-74
2022/05/19 08:06:10;;;;;;;27.77;14.73;;;;;;;24.05;42.41;98727.06;4931438;29;20053;-74
2022/05/19 08:08:37;;;;;;;13.02;6.00;;;;;;;25.17;39.24;98709.34;4935833;29;20090;-75
2022/05/19 08:11:03;;;;;;;15.98;6.38;;;;;;;25.22;39.47;98713.38;4935768;29;20110;-74
2022/05/19 08:16:22;;;;;;;12.63;5.85;;;;;;;27.45;35.97;98706.47;4938337;29;20030;-77
2022/05/19 08:18:48;;;;;;;14.25;6.25;;;;;;;28.40;34.84;98700.03;4936407;29;20039;-75
2022/05/19 08:21:14;;;;;;;15.18;5.65;;;;;;;28.98;33.89;98688.53;4935547;29;20403;-75
2022/05/19 08:23:45;;;;;;;11.85;5.20;;;;;;;30.37;32.09;98687.00;4919683;29;20031;-76
2022/05/19 08:26:11;;;;;;;12.90;5.45;;;;;;;29.62;32.96;98683.56;4919048;29;20047;-76
2022/05/19 08:28:38;;;;;;;16.38;5.38;;;;;;;29.67;32.52;98674.69;4919511;29;20113;-76
2022/05/19 08:31:08;;;;;;;10.27;5.30;;;;;;;29.69;31.66;98683.63;4935316;29;20053;-75
2022/05/19 08:33:35;;;;;;;24.13;5.65;;;;;;;30.17;31.39;98676.75;4919575;29;20038;-76
2022/05/19 08:36:02;;;;;;;9.60;4.75;;;;;;;29.44;32.15;98674.75;4935973;29;20027;-76
2022/05/19 08:38:28;;;;;;;13.85;4.60;;;;;;;28.15;32.37;98665.38;4939434;29;20039;-76
2022/05/19 08:41:02;;;;;;;29.77;12.05;;;;;;;27.77;32.01;98660.69;4923282;29;20042;-76
2022/05/19 08:43:51;;;;;;;10.27;4.28;;;;;;;26.13;35.01;98665.28;4956430;29;20139;-76
2022/05/19 08:46:30;;;;;;;10.52;3.35;;;;;;;28.47;32.39;98664.38;4938571;29;20043;-76
2022/05/19 08:48:59;;;;;;;3.90;2.30;;;;;;;28.16;30.47;98650.59;4936716;29;20484;-76
2022/05/19 08:51:31;;;;;;;5.00;1.80;;;;;;;26.63;27.98;98631.50;4939256;29;20050;-76
2022/05/19 08:54:03;;;;;;;3.77;1.40;;;;;;;27.44;26.53;98621.38;4923233;29;20106;-77
2022/05/19 08:56:41;;;;;;;7.45;2.00;;;;;;;29.22;26.35;98632.38;4923200;29;20270;-77
2022/05/19 08:59:35;;;;;;;3.45;1.92;;;;;;;28.02;26.80;98625.69;4923076;29;20019;-76
2022/05/19 09:02:13;;;;;;;6.20;2.55;;;;;;;28.76;28.33;98638.94;4923045;29;20090;-77
2022/05/19 09:05:03;;;;;;;6.88;2.25;;;;;;;28.87;29.09;98646.78;4922993;29;20051;-76
2022/05/19 09:10:43;;;;;;;2.88;1.85;;;;;;;29.20;27.87;98633.56;4955737;29;20040;-77
2022/05/19 09:13:09;;;;;;;5.80;2.15;;;;;;;29.68;27.77;98629.50;4938715;29;20447;-76
2022/05/19 09:15:36;;;;;;;3.63;1.70;;;;;;;30.90;26.28;98626.88;4956166;29;20027;-77
2022/05/19 09:18:02;;;;;;;4.60;2.10;;;;;;;30.33;26.61;98616.63;4923022;29;20031;-76
2022/05/19 09:20:54;;;;;;;7.15;1.77;;;;;;;32.18;24.94;98606.19;4922736;29;20027;-76
2022/05/19 09:23:21;;;;;;;16.42;2.78;;;;;;;32.24;25.41;98615.63;4919670;29;20142;-77
2022/05/19 09:25:50;;;;;;;125.55;6.88;;;;;;;31.47;26.05;98613.78;4922531;29;20027;-76
2022/05/19 09:28:16;;;;;;;10.15;1.90;;;;;;;28.77;27.51;98604.81;4938770;29;20110;-76
2022/05/19 09:30:52;;;;;;;3.35;1.63;;;;;;;30.02;27.06;98611.34;4922168;29;20482;-76
2022/05/19 09:33:21;;;;;;;14.13;2.95;;;;;;;29.69;26.93;98606.38;4940671;29;20476;-76
2022/05/19 09:35:54;;;;;;;8.32;1.80;;;;;;;29.95;26.68;98601.28;4936490;29;20023;-76
2022/05/19 09:38:36;;;;;;;29.70;5.85;;;;;;;31.17;25.83;98601.22;4918009;29;20035;-76
2022/05/19 09:41:03;;;;;;;;;;;;;;;31.94;24.03;98588.16;4936805;29;20062;-76
2022/05/19 09:43:33;;;;;;;2.30;1.38;;;;;;;32.20;22.50;98579.16;4921850;29;19914;-78
2022/05/19 09:46:13;;;;;;;3.42;1.10;;;;;;;32.48;19.51;98554.97;4921689;29;20034;-77
2022/05/19 09:48:45;;;;;;;3.53;1.63;;;;;;;32.50;20.68;98560.28;4938061;29;20104;-77
2022/05/19 09:51:15;;;;;;;9.30;1.52;;;;;;;30.72;22.56;98563.78;4921170;29;20035;-77
2022/05/19 09:53:46;;;;;;;114.00;9.13;;;;;;;31.36;23.06;98559.03;4937244;29;20050;-77
2022/05/19 09:56:15;;;;;;;31.45;3.15;;;;;;;32.42;22.09;98560.50;4922019;29;20043;-77
2022/05/19 09:58:47;;;;;;;5.45;1.30;;;;;;;34.14;20.53;98551.94;4922350;29;20487;-77
2022/05/19 10:01:29;;;;;;;7.55;1.50;;;;;;;34.49;19.46;98549.63;4922164;29;20035;-78
2022/05/19 10:03:58;;;;;;;8.95;2.05;;;;;;;33.30;19.55;98543.56;4921796;29;20031;-78
2022/05/19 10:06:46;;;;;;;2.22;1.40;;;;;;;34.36;18.91;98549.72;4954786;29;20134;-77
2022/05/19 10:09:15;;;;;;;8.13;2.00;;;;;;;32.88;19.60;98535.66;4916599;29;20038;-77
2022/05/19 10:11:54;;;;;;;1.60;1.50;;;;;;;31.76;19.87;98528.84;4921616;29;20042;-77
2022/05/19 10:14:30;;;;;;;5.03;1.48;;;;;;;32.84;19.00;98521.34;4937441;29;20028;-78
2022/05/19 10:17:26;;;;;;;13.77;1.45;;;;;;;30.96;21.07;98523.81;4937641;29;20031;-78
2022/05/19 10:20:05;;;;;;;3.35;1.48;;;;;;;32.58;19.50;98526.84;4954580;29;20038;-77
2022/05/19 10:22:45;;;;;;;10.35;2.10;;;;;;;33.11;17.64;98511.13;4921672;29;20063;-77
2022/05/19 10:25:50;;;;;;;3.97;1.95;;;;;;;33.55;16.50;98511.28;4937261;29;20114;-77
2022/05/19 10:31:42;;;;;;;9.38;1.95;;;;;;;32.39;19.32;98516.56;4956116;29;20065;-77
2022/05/19 10:34:11;;;;;;;4.93;1.52;;;;;;;33.60;18.77;98517.06;4954615;29;20035;-77
2022/05/19 10:36:41;;;;;;;8.00;1.40;;;;;;;34.03;18.91;98513.69;4954765;29;20415;-77
2022/05/19 10:39:16;;;;;;;3.65;2.83;;;;;;;33.57;19.35;98505.50;4937187;29;20027;-77
2022/05/19 10:42:00;;;;;;;4.40;2.67;;;;;;;31.07;20.12;98502.00;4955647;29;20030;-77
2022/05/19 10:45:10;;;;;;;2.50;1.27;;;;;;;30.18;21.24;98508.13;4954413;29;20027;-77
2022/05/19 10:48:00;;;;;;;2.30;1.30;;;;;;;30.93;20.86;98502.09;4918561;29;20050;-77
2022/05/19 10:50:31;;;;;;;2.90;1.67;;;;;;;31.81;20.35;98506.97;4955159;29;20027;-77
2022/05/19 10:53:15;;;;;;;8.48;1.35;;;;;;;32.56;19.53;98495.72;4936594;29;20027;-77
2022/05/19 10:55:46;;;;;;;12.60;2.13;;;;;;;32.37;20.55;98507.59;4936886;29;20399;-77
2022/05/19 10:58:15;;;;;;;;;;;;;;;34.33;18.11;98497.34;4921051;29;20035;-76
2022/05/19 11:00:51;;;;;;;2.78;1.40;;;;;;;33.00;19.37;98484.03;4954331;29;19914;-75
2022/05/19 11:04:05;;;;;;;23.38;2.10;;;;;;;33.71;19.55;98501.66;4936753;29;20027;-76
2022/05/19 11:07:07;;;;;;;5.90;1.50;;;;;;;32.83;18.89;98479.97;4857454;29;20132;-76
2022/05/19 11:09:57;;;;;;;11.13;1.85;;;;;;;33.18;19.02;98471.22;4858980;29;20029;-83
2022/05/19 11:12:43;;;;;;;4.03;1.35;;;;;;;34.55;17.98;98477.28;4852391;29;20099;-78
2022/05/19 11:15:37;;;;;;;4.88;1.75;;;;;;;34.71;18.35;98467.59;4858074;29;20076;-95
2022/05/19 11:18:21;;;;;;;1.65;1.10;;;;;;;35.44;17.26;98467.78;4888802;29;20031;-88
2022/05/19 11:20:58;;;;;;;8.98;1.70;;;;;;;33.81;18.25;98463.16;4937215;29;20031;-77
2022/05/19 11:23:46;;;;;;;3.28;2.20;;;;;;;33.23;19.06;98470.56;4937198;29;20027;-82
2022/05/19 11:26:42;;;;;;;5.15;3.08;;;;;;;32.91;19.47;98454.81;4938406;29;20039;-86
2022/05/19 11:29:47;;;;;;;5.53;1.23;;;;;;;32.36;19.84;98451.34;4936681;29;20491;-84
2022/05/19 11:32:27;;;;;;;5.43;1.67;;;;;;;31.61;18.62;98446.84;4920365;29;20039;-82
2022/05/19 11:35:14;;;;;;;3.50;1.80;;;;;;;32.55;18.68;98433.88;4916149;29;20029;-77
2022/05/19 11:38:02;;;;;;;2.28;1.40;;;;;;;31.01;19.20;98432.88;4946747;28;20114;-76
2022/05/19 11:40:36;;;;;;;3.42;1.50;;;;;;;31.20;19.32;98421.06;4952913;29;20031;-76
2022/05/19 11:43:02;;;;;;;2.42;1.52;;;;;;;32.76;19.75;98432.00;4953501;29;20407;-76
2022/05/19 11:45:47;;;;;;;8.07;2.28;;;;;;;32.91;19.01;98418.75;4952919;29;20027;-75
2022/05/19 11:55:14;;;;;;;1.50;1.25;;;;;;;32.84;17.72;98404.03;4953150;29;20082;-75
2022/05/19 11:57:46;;;;;;;6.60;1.50;;;;;;;33.05;17.51;98406.56;4921722;29;20035;-74
2022/05/19 12:00:27;;;;;;;4.55;1.70;;;;;;;33.28;17.60;98400.56;4935625;29;20463;-80
2022/05/19 12:03:12;;;;;;;6.90;1.70;;;;;;;33.52;17.14;98397.91;4930641;29;20042;-81
2022/05/19 12:06:01;;;;;;;2.92;1.50;;;;;;;33.72;17.20;98390.38;4917881;29;20056;-78
2022/05/19 12:08:41;;;;;;;6.20;1.40;;;;;;;34.11;17.00;98396.81;4920861;29;20050;-78
2022/05/19 12:11:31;;;;;;;2.35;1.33;;;;;;;34.01;17.04;98390.84;4936693;29;20025;-80
2022/05/19 12:14:24;;;;;;;2.75;1.50;;;;;;;34.26;16.37;98370.41;4921859;29;20050;-81
2022/05/19 12:16:59;;;;;;;4.90;1.77;;;;;;;33.61;16.98;98366.09;4929785;29;20032;-81
2022/05/19 12:19:39;;;;;;;5.47;1.80;;;;;;;33.13;17.01;98362.00;4953591;28;20114;-80
2022/05/19 12:22:52;;;;;;;3.08;1.13;;;;;;;32.37;17.81;98361.63;4920130;29;20408;-76